Terminal Aerodrome Forecast
Issued by NWS

Home | Current Version | Previous Version | Text Only | Print | Product List | Glossary On
Versions: 1 2 3 4 5 6 7 8 9 10 11 12 13
280
FTUS44 KEPZ 040535
TAFLRU
TAF
KLRU 040535Z 0406/0506 01007KT P6SM SCT030 SCT120
     FM041300 36009KT 2SM BR BKN001
     FM041600 03005KT P6SM FEW050
     FM050100 06007KT P6SM SKC=

USA.gov is the U.S. government's official web portal to all federal, state and local government web resources and services.